Time;durP1;ratioP1;P1;durP2;ratioP2;P2;SDS_P1;SDS_P2;PMS_P1;PMS_P2;Temp;Humidity;BMP_temperature;BMP_pressure;BME280_temperature;BME280_humidity;BME280_pressure;Samples;Min_cycle;Max_cycle;Signal;HPM_P1;HPM_P2
2023/07/15 00:00:17;;;;;;;5.57;2.70;;;;;;;25.75;54.76;-18717.53;5078007;28;20461;-78
2023/07/15 00:02:43;;;;;;;7.50;2.75;;;;;;;25.76;54.31;-18717.78;5080493;28;20050;-76
2023/07/15 00:05:20;;;;;;;7.32;2.42;;;;;;;25.79;54.43;-18718.59;5066020;28;20040;-77
2023/07/15 00:07:47;;;;;;;6.18;2.45;;;;;;;25.61;54.34;-18713.88;5082875;28;20135;-77
2023/07/15 00:10:13;;;;;;;5.68;2.42;;;;;;;25.73;53.99;-18716.97;5089645;28;20058;-77
2023/07/15 00:12:38;;;;;;;5.50;2.70;;;;;;;25.75;53.27;-18717.38;5080378;28;20044;-77
2023/07/15 00:15:05;;;;;;;6.78;3.20;;;;;;;25.72;52.91;-18716.56;5077954;28;20047;-77
2023/07/15 00:17:31;;;;;;;4.53;2.50;;;;;;;25.82;51.23;-18719.28;5077409;28;20036;-77
2023/07/15 00:19:56;;;;;;;6.65;2.70;;;;;;;25.80;51.87;-18718.88;5083377;28;20032;-77
2023/07/15 00:22:21;;;;;;;5.30;2.55;;;;;;;25.85;50.57;-18720.22;5082497;28;20365;-76
2023/07/15 00:24:47;;;;;;;5.78;2.75;;;;;;;25.92;49.97;-18721.84;5071748;28;20132;-76
2023/07/15 00:27:12;;;;;;;4.68;2.40;;;;;;;25.95;49.76;-18722.66;5087901;28;20044;-77
2023/07/15 00:29:37;;;;;;;3.45;2.28;;;;;;;25.95;49.07;-18722.66;5082131;28;20400;-77
2023/07/15 00:32:09;;;;;;;4.30;2.30;;;;;;;26.00;49.35;-18724.16;5075673;28;20111;-76
2023/07/15 00:34:34;;;;;;;5.57;2.20;;;;;;;26.02;48.97;-18724.56;5080493;28;20440;-75
2023/07/15 00:37:00;;;;;;;5.18;2.42;;;;;;;26.18;47.55;-18728.88;5066561;28;20142;-77
2023/07/15 00:39:25;;;;;;;10.82;2.78;;;;;;;26.11;47.53;-18727.00;5080183;28;20032;-76
2023/07/15 00:41:55;;;;;;;5.25;2.35;;;;;;;26.23;47.16;-18730.25;5079828;28;20043;-76
2023/07/15 00:44:20;;;;;;;5.90;2.63;;;;;;;26.16;47.19;-18728.22;5068970;28;20047;-76
2023/07/15 00:47:01;;;;;;;5.50;2.75;;;;;;;26.36;46.89;-18733.63;5061324;28;20040;-76
2023/07/15 00:49:29;;;;;;;4.10;2.60;;;;;;;26.36;46.14;-18733.47;5066401;28;20603;-76
2023/07/15 00:52:02;;;;;;;4.53;2.30;;;;;;;26.44;46.10;-18735.78;5078571;28;20474;-77
2023/07/15 00:54:31;;;;;;;4.40;2.47;;;;;;;26.42;45.91;-18735.25;5076571;28;20278;-77
2023/07/15 00:57:00;;;;;;;6.95;2.88;;;;;;;26.41;45.69;-18734.97;5076403;28;20384;-77
2023/07/15 00:59:25;;;;;;;6.00;2.40;;;;;;;26.49;45.55;-18737.00;5083263;28;20039;-76
2023/07/15 01:01:53;;;;;;;5.72;2.17;;;;;;;26.44;45.58;-18735.66;5080391;28;20289;-76
2023/07/15 01:04:18;;;;;;;5.13;2.13;;;;;;;26.39;45.49;-18734.28;5074862;28;20774;-76
2023/07/15 01:06:45;;;;;;;6.65;2.63;;;;;;;26.52;45.55;-18737.94;5080734;28;20086;-77
2023/07/15 01:09:11;;;;;;;3.22;2.15;;;;;;;26.37;45.56;-18733.88;5081098;28;20040;-77
2023/07/15 01:11:37;;;;;;;6.75;2.58;;;;;;;26.46;45.91;-18736.19;5079151;28;20385;-76
2023/07/15 01:14:03;;;;;;;5.18;2.40;;;;;;;26.50;45.59;-18737.28;5082139;28;20040;-76
2023/07/15 01:16:28;;;;;;;7.05;2.80;;;;;;;26.52;45.41;-18737.81;5075329;28;20049;-76
2023/07/15 01:18:54;;;;;;;4.45;1.92;;;;;;;26.28;45.56;-18731.59;5072950;28;20068;-78
2023/07/15 01:21:20;;;;;;;5.30;2.40;;;;;;;26.30;45.85;-18732.00;5074313;28;20052;-77
2023/07/15 01:23:46;;;;;;;3.88;2.20;;;;;;;26.18;46.42;-18728.75;5077822;28;20044;-76
2023/07/15 01:26:11;;;;;;;4.20;2.15;;;;;;;26.19;46.28;-18729.03;5081188;28;20104;-77
2023/07/15 01:28:37;;;;;;;4.68;2.03;;;;;;;26.00;47.47;-18724.03;5076015;28;20052;-75
2023/07/15 01:31:02;;;;;;;7.68;2.30;;;;;;;26.01;47.14;-18724.28;5076857;28;20036;-75
2023/07/15 01:33:28;;;;;;;3.45;1.95;;;;;;;25.96;47.56;-18723.06;5076859;28;20422;-76
2023/07/15 01:35:54;;;;;;;3.30;1.92;;;;;;;26.01;47.74;-18724.44;5074799;28;20040;-77
2023/07/15 01:38:20;;;;;;;3.58;2.20;;;;;;;25.96;47.66;-18722.94;5074574;28;20085;-76
2023/07/15 01:40:45;;;;;;;7.18;2.30;;;;;;;26.05;47.44;-18725.38;5076861;28;20028;-76
2023/07/15 01:43:10;;;;;;;4.90;1.88;;;;;;;26.06;47.69;-18725.63;5075738;28;20138;-76
2023/07/15 01:45:39;;;;;;;4.25;2.20;;;;;;;26.03;47.39;-18724.84;5082768;28;20044;-76
2023/07/15 01:48:05;;;;;;;;;;;;;;;26.03;47.58;-18724.84;5077128;28;20495;-76
2023/07/15 01:50:31;;;;;;;4.90;1.90;;;;;;;25.97;47.92;-18723.22;5076362;28;19916;-75
2023/07/15 01:52:57;;;;;;;4.80;2.20;;;;;;;25.97;47.89;-18723.34;5073656;28;20454;-75
2023/07/15 01:55:23;;;;;;;3.85;2.20;;;;;;;26.07;46.90;-18726.06;5074371;28;20048;-75
2023/07/15 01:57:48;;;;;;;4.57;2.05;;;;;;;26.05;46.81;-18725.38;5057876;28;20036;-75
2023/07/15 02:00:16;;;;;;;3.75;1.90;;;;;;;25.99;46.35;-18723.88;5082395;28;20089;-76
2023/07/15 02:02:42;;;;;;;3.67;1.95;;;;;;;26.11;46.45;-18727.13;5061325;28;20598;-76
2023/07/15 02:05:08;;;;;;;4.65;2.00;;;;;;;26.07;46.88;-18726.06;5080212;28;20088;-78
2023/07/15 02:07:33;;;;;;;4.63;2.58;;;;;;;25.87;47.21;-18720.78;5078444;28;20036;-77
2023/07/15 02:09:58;;;;;;;3.33;2.00;;;;;;;25.87;47.47;-18720.63;5077973;28;20037;-75
2023/07/15 02:12:24;;;;;;;4.97;2.17;;;;;;;25.88;47.28;-18721.03;5077943;28;20051;-76
2023/07/15 02:14:49;;;;;;;4.50;2.40;;;;;;;25.86;47.51;-18720.38;5078020;28;20052;-77
2023/07/15 02:17:17;;;;;;;6.88;2.55;;;;;;;25.81;47.86;-18719.00;5064534;28;20052;-75
2023/07/15 02:19:42;;;;;;;4.55;2.28;;;;;;;25.82;47.61;-18719.41;5074444;28;20037;-74
2023/07/15 02:22:09;;;;;;;6.82;2.25;;;;;;;25.65;48.51;-18714.81;5062545;28;20054;-76
2023/07/15 02:24:34;;;;;;;5.90;2.22;;;;;;;25.59;48.93;-18713.34;5076903;28;20043;-77
2023/07/15 02:26:59;;;;;;;4.57;2.00;;;;;;;25.85;48.15;-18720.22;5075544;28;20049;-78
2023/07/15 02:29:25;;;;;;;4.45;2.30;;;;;;;25.82;47.85;-18719.41;5084185;28;20036;-74
2023/07/15 02:31:50;;;;;;;3.95;2.03;;;;;;;25.83;48.17;-18719.69;5078846;28;20040;-77
2023/07/15 02:34:16;;;;;;;3.95;2.10;;;;;;;25.64;48.65;-18714.69;5074409;28;20059;-75
2023/07/15 02:36:41;;;;;;;4.78;2.10;;;;;;;25.51;49.80;-18711.16;5081080;28;20036;-76
2023/07/15 02:39:08;;;;;;;7.00;2.20;;;;;;;25.38;50.52;-18707.78;5078992;28;20123;-77
2023/07/15 02:41:33;;;;;;;5.15;2.20;;;;;;;25.47;49.97;-18709.94;5078870;28;20044;-74
2023/07/15 02:43:59;;;;;;;3.78;1.98;;;;;;;25.43;49.84;-18709.13;5082188;28;20032;-77
2023/07/15 02:46:25;;;;;;;9.23;2.30;;;;;;;25.50;49.57;-18710.75;5075927;28;20052;-77
2023/07/15 02:48:50;;;;;;;4.65;1.80;;;;;;;25.46;50.22;-18709.69;5076275;28;20131;-77
2023/07/15 02:51:16;;;;;;;4.13;2.15;;;;;;;25.34;51.10;-18706.69;5079623;28;20051;-76
2023/07/15 02:53:43;;;;;;;5.43;2.10;;;;;;;25.16;51.66;-18701.97;5078989;28;20560;-75
2023/07/15 02:56:09;;;;;;;4.45;2.25;;;;;;;25.07;52.31;-18699.38;5078688;28;20048;-77
2023/07/15 02:58:34;;;;;;;4.55;2.15;;;;;;;25.15;51.73;-18701.56;5075203;28;20040;-76
2023/07/15 03:00:59;;;;;;;5.07;2.67;;;;;;;25.17;51.31;-18702.22;5074142;28;20560;-76
2023/07/15 03:03:25;;;;;;;6.43;2.08;;;;;;;25.20;52.03;-18702.91;5082267;28;20032;-76
2023/07/15 03:05:51;;;;;;;6.75;2.40;;;;;;;25.21;51.64;-18703.31;5074747;28;20043;-76
2023/07/15 03:08:17;;;;;;;4.85;2.20;;;;;;;25.32;50.69;-18706.16;5082618;28;20048;-76
2023/07/15 03:10:43;;;;;;;4.10;2.25;;;;;;;25.23;51.16;-18703.72;5082827;28;20044;-76
2023/07/15 03:13:09;;;;;;;6.07;2.00;;;;;;;25.25;51.41;-18704.25;5076517;28;20127;-76
2023/07/15 03:15:35;;;;;;;4.15;2.35;;;;;;;25.16;51.56;-18701.97;5077482;28;20120;-75
2023/07/15 03:18:02;;;;;;;7.00;2.20;;;;;;;25.19;51.85;-18702.63;5076322;28;20119;-75
2023/07/15 03:20:27;;;;;;;6.60;2.13;;;;;;;25.32;51.03;-18706.16;5078377;28;20048;-75
2023/07/15 03:22:54;;;;;;;4.80;2.45;;;;;;;25.43;50.88;-18709.13;5063277;28;20097;-75
2023/07/15 03:25:20;;;;;;;4.50;2.40;;;;;;;25.37;50.80;-18707.50;5078284;28;20051;-76
2023/07/15 03:27:46;;;;;;;6.75;2.50;;;;;;;25.20;51.22;-18703.06;5063044;28;20040;-76
2023/07/15 03:30:12;;;;;;;4.90;2.45;;;;;;;25.09;52.34;-18699.94;5076088;28;20048;-75
2023/07/15 03:32:38;;;;;;;3.65;2.33;;;;;;;24.87;53.11;-18694.25;5079311;28;20404;-75
2023/07/15 03:35:05;;;;;;;3.55;2.55;;;;;;;24.85;53.91;-18693.69;5065428;28;20134;-76
2023/07/15 03:37:31;;;;;;;10.57;2.60;;;;;;;24.89;54.11;-18694.78;5077409;28;20645;-76
2023/07/15 03:39:57;;;;;;;5.55;2.65;;;;;;;24.90;53.68;-18695.06;5066064;28;20048;-76
2023/07/15 03:42:23;;;;;;;7.07;2.47;;;;;;;24.89;53.56;-18694.78;5077945;28;20101;-75
2023/07/15 03:44:48;;;;;;;4.72;2.40;;;;;;;24.89;53.74;-18694.78;5073486;28;20040;-76
2023/07/15 03:47:13;;;;;;;3.90;1.95;;;;;;;24.94;54.08;-18696.13;5081019;28;20654;-76
2023/07/15 03:49:39;;;;;;;6.97;2.97;;;;;;;24.90;54.60;-18695.06;5076813;28;20466;-76
2023/07/15 03:52:04;;;;;;;6.45;3.03;;;;;;;24.94;53.71;-18696.13;5070311;28;20060;-76
2023/07/15 03:54:30;;;;;;;5.18;2.75;;;;;;;24.82;53.96;-18692.88;5067197;28;20487;-75
2023/07/15 03:56:56;;;;;;;5.05;2.38;;;;;;;24.86;55.02;-18693.97;5085803;28;20036;-76
2023/07/15 03:59:22;;;;;;;9.55;2.85;;;;;;;24.83;54.88;-18693.03;5084202;28;20036;-76
2023/07/15 04:01:47;;;;;;;6.47;2.58;;;;;;;24.91;54.11;-18695.31;5073821;28;20063;-76
2023/07/15 04:04:13;;;;;;;5.05;2.63;;;;;;;24.80;54.90;-18692.22;5077449;28;20029;-76
2023/07/15 04:06:38;;;;;;;3.88;2.05;;;;;;;24.77;55.23;-18691.66;5081436;28;20046;-75
2023/07/15 04:09:06;;;;;;;4.15;2.30;;;;;;;25.02;53.45;-18698.03;5085904;28;21408;-76
2023/07/15 04:11:32;;;;;;;4.13;2.17;;;;;;;25.05;53.76;-18698.84;5078943;28;20407;-75
2023/07/15 04:13:58;;;;;;;5.70;2.75;;;;;;;25.16;53.30;-18701.81;5079479;28;20048;-75
2023/07/15 04:16:24;;;;;;;6.75;2.67;;;;;;;25.14;53.31;-18701.41;5081153;28;20382;-76
2023/07/15 04:18:49;;;;;;;9.27;2.58;;;;;;;24.93;54.52;-18695.88;5077369;28;20024;-76
2023/07/15 04:21:14;;;;;;;4.63;2.28;;;;;;;24.96;53.85;-18696.69;5070940;28;20044;-76
2023/07/15 04:23:40;;;;;;;5.45;2.63;;;;;;;24.92;55.05;-18695.59;5074833;28;20120;-75
2023/07/15 04:26:07;;;;;;;6.05;2.35;;;;;;;24.91;55.79;-18695.19;5080442;28;20032;-76
2023/07/15 04:28:33;;;;;;;5.53;2.67;;;;;;;24.91;55.78;-18695.31;5080197;28;20089;-76
2023/07/15 04:30:58;;;;;;;7.95;3.25;;;;;;;24.83;56.29;-18693.03;5077484;28;20437;-75
2023/07/15 04:33:24;;;;;;;6.70;2.22;;;;;;;24.87;56.19;-18694.09;5087715;28;20043;-76
2023/07/15 04:35:49;;;;;;;5.57;2.60;;;;;;;25.14;54.40;-18701.28;5074180;28;20574;-76
2023/07/15 04:38:15;;;;;;;4.40;2.20;;;;;;;25.15;54.85;-18701.56;5077545;28;20043;-76
2023/07/15 04:40:40;;;;;;;5.40;2.70;;;;;;;25.13;56.01;-18701.00;5076933;28;20089;-76
2023/07/15 04:43:05;;;;;;;3.88;1.92;;;;;;;25.16;55.17;-18701.81;5075761;28;20032;-75
2023/07/15 04:45:32;;;;;;;5.55;2.80;;;;;;;25.17;56.51;-18702.09;5082275;28;20039;-76
2023/07/15 04:47:58;;;;;;;4.47;2.42;;;;;;;25.14;55.46;-18701.28;5077748;28;20040;-76
2023/07/15 04:50:23;;;;;;;4.97;2.38;;;;;;;25.24;55.59;-18703.84;5075520;28;20032;-76
2023/07/15 04:52:49;;;;;;;5.78;2.20;;;;;;;25.27;55.48;-18704.81;5076219;28;20043;-75
2023/07/15 04:55:15;;;;;;;9.27;2.78;;;;;;;25.18;55.31;-18702.50;5069228;28;20143;-76
2023/07/15 04:57:40;;;;;;;5.35;2.22;;;;;;;24.98;56.98;-18697.09;5078934;28;20142;-75
2023/07/15 05:00:10;;;;;;;3.75;2.38;;;;;;;25.21;56.14;-18703.19;5071402;28;20049;-76
2023/07/15 05:02:37;;;;;;;4.43;2.30;;;;;;;25.24;55.53;-18704.00;5070147;28;20435;-77
2023/07/15 05:05:04;;;;;;;4.45;2.00;;;;;;;25.23;56.53;-18703.72;5073405;28;20040;-76
2023/07/15 05:07:29;;;;;;;4.45;2.25;;;;;;;25.38;54.57;-18707.78;5079045;28;20040;-77
2023/07/15 05:09:55;;;;;;;4.82;2.55;;;;;;;25.52;54.98;-18711.31;5075689;28;20097;-77
2023/07/15 05:12:20;;;;;;;4.50;2.40;;;;;;;25.64;54.79;-18714.69;5072058;28;20404;-76
2023/07/15 05:14:45;;;;;;;4.82;2.75;;;;;;;25.74;53.79;-18717.25;5073643;28;20132;-77
2023/07/15 05:17:11;;;;;;;4.70;2.60;;;;;;;25.80;53.67;-18718.75;5064028;28;20033;-78
2023/07/15 05:19:36;;;;;;;5.10;2.45;;;;;;;25.74;54.18;-18717.25;5076671;28;20049;-77
2023/07/15 05:22:02;;;;;;;5.40;2.60;;;;;;;25.88;53.80;-18721.03;5060331;28;20639;-77
2023/07/15 05:24:28;;;;;;;7.45;2.25;;;;;;;25.80;53.59;-18718.75;5076108;28;20056;-77
2023/07/15 05:26:55;;;;;;;5.20;2.50;;;;;;;25.95;52.53;-18722.81;5077263;28;20044;-77
2023/07/15 05:29:20;;;;;;;4.15;2.22;;;;;;;25.76;53.67;-18717.78;5074839;28;20072;-76
2023/07/15 05:31:51;;;;;;;5.75;2.50;;;;;;;25.98;53.77;-18723.47;5070563;28;20040;-76
2023/07/15 05:34:16;;;;;;;4.97;2.88;;;;;;;25.99;53.63;-18723.88;5063734;28;20101;-77
2023/07/15 05:36:42;;;;;;;4.15;2.13;;;;;;;25.90;53.59;-18721.31;5079779;28;20040;-76
2023/07/15 05:39:08;;;;;;;5.22;2.70;;;;;;;25.97;53.84;-18723.34;5063860;28;20079;-77
2023/07/15 05:41:36;;;;;;;7.00;2.65;;;;;;;26.01;52.87;-18724.28;5069326;28;20132;-76
2023/07/15 05:44:01;;;;;;;4.30;2.15;;;;;;;26.05;52.35;-18725.50;5079316;28;20564;-75
2023/07/15 05:46:29;;;;;;;6.07;2.42;;;;;;;26.12;52.31;-18727.25;5082481;28;20075;-77
2023/07/15 05:48:55;;;;;;;4.70;2.50;;;;;;;25.94;53.29;-18722.41;5079460;28;20879;-77
2023/07/15 05:51:21;;;;;;;5.00;2.58;;;;;;;25.88;54.22;-18721.03;5074850;28;20275;-75
2023/07/15 05:53:46;;;;;;;5.65;3.00;;;;;;;25.94;55.63;-18722.53;5075731;28;20109;-77
2023/07/15 05:56:11;;;;;;;7.78;2.50;;;;;;;26.16;53.04;-18728.34;5058346;28;20048;-73
2023/07/15 05:58:37;;;;;;;4.47;2.40;;;;;;;26.28;53.18;-18731.47;5069566;28;20055;-77
2023/07/15 06:01:03;;;;;;;7.65;2.58;;;;;;;26.48;52.10;-18736.72;5075239;28;20036;-77
2023/07/15 06:03:29;;;;;;;4.88;2.33;;;;;;;26.57;52.34;-18739.16;5068650;28;20531;-76
2023/07/15 06:06:00;;;;;;;7.60;2.60;;;;;;;26.61;52.22;-18740.09;5078376;28;20050;-77
2023/07/15 06:08:26;;;;;;;6.10;2.72;;;;;;;26.58;52.16;-18739.31;5073190;28;20133;-76
2023/07/15 06:10:51;;;;;;;4.88;2.15;;;;;;;26.58;51.61;-18739.31;5069102;28;20117;-76
2023/07/15 06:13:16;;;;;;;4.20;2.15;;;;;;;26.71;51.01;-18742.94;5071085;28;20055;-76
2023/07/15 06:15:42;;;;;;;5.88;2.10;;;;;;;26.74;51.24;-18743.75;5072043;28;20423;-77
2023/07/15 06:18:08;;;;;;;7.85;2.67;;;;;;;26.82;50.66;-18745.66;5071241;28;20047;-76
2023/07/15 06:20:38;;;;;;;6.82;2.03;;;;;;;26.80;49.75;-18745.25;5071389;28;20047;-77
2023/07/15 06:23:03;;;;;;;8.15;2.45;;;;;;;26.91;49.07;-18748.22;5069865;28;20072;-77
2023/07/15 06:25:31;;;;;;;5.60;2.38;;;;;;;27.09;49.01;-18752.94;5075243;28;20123;-76
2023/07/15 06:27:57;;;;;;;3.95;2.08;;;;;;;27.28;48.70;-18757.81;5075688;28;20109;-77
2023/07/15 06:30:22;;;;;;;4.90;2.40;;;;;;;27.20;49.00;-18755.91;5069311;28;20167;-75
2023/07/15 06:32:50;;;;;;;6.93;2.40;;;;;;;27.31;48.75;-18758.63;5075852;28;20047;-77
2023/07/15 06:35:15;;;;;;;3.00;1.90;;;;;;;27.33;48.43;-18759.28;5082684;28;20090;-76
2023/07/15 06:37:40;;;;;;;5.43;2.40;;;;;;;27.37;48.08;-18760.25;5079786;28;20487;-77
2023/07/15 06:40:07;;;;;;;6.20;2.13;;;;;;;27.34;48.09;-18759.44;5079670;28;20028;-76
2023/07/15 06:42:32;;;;;;;5.82;2.05;;;;;;;27.60;47.35;-18766.44;5086637;28;20042;-77
2023/07/15 06:44:57;;;;;;;6.15;2.42;;;;;;;27.65;47.16;-18767.81;5077534;28;20037;-77
2023/07/15 06:47:24;;;;;;;7.78;2.08;;;;;;;27.68;46.62;-18768.59;5074489;28;20047;-76
2023/07/15 06:49:50;;;;;;;6.80;2.53;;;;;;;27.76;47.00;-18770.50;5079911;28;20044;-76
2023/07/15 06:52:15;;;;;;;4.68;1.90;;;;;;;27.61;46.73;-18766.72;5078401;28;20043;-75
2023/07/15 06:54:40;;;;;;;5.75;2.00;;;;;;;27.75;47.06;-18770.22;5078820;28;20093;-77
2023/07/15 06:57:06;;;;;;;10.05;2.40;;;;;;;27.92;46.39;-18774.81;5084875;28;20089;-75
2023/07/15 06:59:31;;;;;;;4.50;2.17;;;;;;;28.12;46.13;-18780.22;5079521;28;20049;-76
2023/07/15 07:01:56;;;;;;;4.82;2.00;;;;;;;28.08;45.33;-18779.00;5081094;28;20064;-76
2023/07/15 07:04:22;;;;;;;5.22;2.20;;;;;;;28.30;45.25;-18784.81;5078455;28;20048;-76
2023/07/15 07:06:47;;;;;;;3.08;1.70;;;;;;;28.40;45.06;-18787.34;5078774;28;20036;-77
2023/07/15 07:09:12;;;;;;;4.97;2.13;;;;;;;28.41;44.40;-18787.63;5075527;28;20679;-76
2023/07/15 07:11:38;;;;;;;4.97;1.88;;;;;;;28.50;45.17;-18790.06;5085066;28;20044;-77
2023/07/15 07:14:04;;;;;;;4.68;1.95;;;;;;;28.52;45.18;-18790.75;5064270;28;20036;-77
2023/07/15 07:16:29;;;;;;;3.67;2.00;;;;;;;28.48;44.94;-18789.53;5075916;28;20740;-77
2023/07/15 07:18:55;;;;;;;5.13;2.10;;;;;;;28.51;45.63;-18790.47;5074367;28;20048;-77
2023/07/15 07:21:20;;;;;;;6.50;2.42;;;;;;;28.51;44.88;-18790.34;5075749;28;20399;-76
2023/07/15 07:23:46;;;;;;;5.07;2.17;;;;;;;28.49;44.05;-18789.78;5076013;28;20089;-77
2023/07/15 07:26:11;;;;;;;7.63;2.35;;;;;;;28.68;44.98;-18794.78;5077235;28;20126;-77
2023/07/15 07:28:46;;;;;;;10.15;2.40;;;;;;;28.81;44.11;-18798.28;5078731;28;20522;-77
2023/07/15 07:31:13;;;;;;;5.63;2.22;;;;;;;28.76;44.17;-18797.06;5079733;28;20048;-76
2023/07/15 07:33:41;;;;;;;5.55;1.90;;;;;;;28.66;44.42;-18794.38;5067861;28;20032;-77
2023/07/15 07:36:06;;;;;;;4.97;2.00;;;;;;;28.82;42.98;-18798.41;5079613;28;20035;-77
2023/07/15 07:38:32;;;;;;;4.15;1.70;;;;;;;28.99;42.93;-18803.13;5077543;28;20048;-77
2023/07/15 07:41:11;;;;;;;6.88;2.22;;;;;;;29.00;43.06;-18803.41;5074227;28;20036;-77
2023/07/15 07:43:38;;;;;;;7.38;2.00;;;;;;;28.99;42.93;-18803.00;5073192;28;20059;-77
2023/07/15 07:46:05;;;;;;;4.72;1.50;;;;;;;29.23;41.96;-18809.34;5077178;28;20059;-77
2023/07/15 07:48:30;;;;;;;4.90;2.50;;;;;;;29.20;42.76;-18808.66;5081451;28;20048;-77
2023/07/15 07:50:56;;;;;;;7.05;2.50;;;;;;;29.12;43.49;-18806.38;5066432;28;20032;-77
2023/07/15 07:53:23;;;;;;;5.22;1.90;;;;;;;29.28;43.22;-18810.56;5079198;28;20032;-76
2023/07/15 07:55:49;;;;;;;6.25;2.70;;;;;;;29.33;42.54;-18812.03;5076127;28;20040;-77
2023/07/15 07:58:14;;;;;;;4.78;1.80;;;;;;;29.42;41.96;-18814.44;5078250;28;20075;-77
2023/07/15 08:00:40;;;;;;;7.05;2.42;;;;;;;29.24;42.40;-18809.59;5080299;28;20122;-76
2023/07/15 08:03:06;;;;;;;5.10;2.38;;;;;;;29.09;42.64;-18805.56;5078493;28;20063;-76
2023/07/15 08:05:31;;;;;;;6.40;1.92;;;;;;;29.17;43.34;-18807.72;5063081;28;20060;-77
2023/07/15 08:07:57;;;;;;;5.88;1.90;;;;;;;29.21;43.37;-18808.94;5082776;28;20376;-77
2023/07/15 08:10:22;;;;;;;3.60;1.90;;;;;;;29.32;43.57;-18811.75;5080399;28;20474;-76
2023/07/15 08:12:48;;;;;;;7.85;2.67;;;;;;;29.50;44.15;-18816.47;5075273;28;20036;-77
2023/07/15 08:15:13;;;;;;;6.85;2.30;;;;;;;29.59;43.67;-18818.75;5077154;28;20147;-77
2023/07/15 08:17:39;;;;;;;5.82;2.00;;;;;;;29.80;43.39;-18824.28;5075905;28;20044;-77
2023/07/15 08:20:05;;;;;;;7.40;1.98;;;;;;;29.78;42.66;-18823.75;5076131;28;20035;-76
2023/07/15 08:22:30;;;;;;;4.70;2.05;;;;;;;29.92;42.88;-18827.50;5076555;28;20123;-77
2023/07/15 08:24:56;;;;;;;5.43;2.22;;;;;;;30.16;42.53;-18833.84;5065975;28;20480;-78
2023/07/15 08:27:21;;;;;;;5.40;1.98;;;;;;;30.25;43.10;-18836.28;5080373;28;20059;-76
2023/07/15 08:29:47;;;;;;;4.18;1.80;;;;;;;30.16;42.86;-18833.72;5075460;28;20496;-77
2023/07/15 08:32:13;;;;;;;7.53;1.92;;;;;;;30.08;43.95;-18831.69;5075700;28;20430;-77
2023/07/15 08:34:38;;;;;;;4.75;1.98;;;;;;;30.15;44.66;-18833.56;5088686;28;20062;-77
2023/07/15 08:37:04;;;;;;;3.03;1.50;;;;;;;30.20;44.13;-18834.91;5073459;28;20518;-77
2023/07/15 08:39:29;;;;;;;4.20;1.52;;;;;;;30.33;45.25;-18838.28;5066565;28;20039;-77
2023/07/15 08:41:56;;;;;;;6.13;1.52;;;;;;;29.75;46.16;-18823.06;5082330;28;20955;-76
2023/07/15 08:44:22;;;;;;;4.55;1.70;;;;;;;29.78;47.17;-18823.75;5072776;28;20686;-76
2023/07/15 08:46:48;;;;;;;3.45;1.60;;;;;;;29.91;47.60;-18827.25;5074855;28;20060;-77
2023/07/15 08:49:14;;;;;;;2.42;1.33;;;;;;;30.00;46.77;-18829.53;5075353;28;20121;-76
2023/07/15 08:51:41;;;;;;;3.55;1.52;;;;;;;30.00;47.92;-18829.66;5076147;28;20048;-77
2023/07/15 08:54:08;;;;;;;5.70;1.42;;;;;;;30.04;47.54;-18830.63;5067490;28;20040;-75
2023/07/15 08:56:37;;;;;;;3.78;1.30;;;;;;;30.09;48.15;-18831.97;5077521;28;20559;-76
2023/07/15 08:59:05;;;;;;;;;;;;;;;30.07;47.96;-18831.56;5083465;28;20036;-76
2023/07/15 09:01:30;;;;;;;3.28;1.30;;;;;;;29.93;48.16;-18827.66;5077013;28;20268;-77
2023/07/15 09:03:56;;;;;;;5.15;2.20;;;;;;;29.90;48.08;-18826.97;5076600;28;20036;-76
2023/07/15 09:06:22;;;;;;;3.97;1.55;;;;;;;29.87;47.28;-18826.16;5074864;28;20051;-76
2023/07/15 09:08:51;;;;;;;3.90;1.70;;;;;;;30.01;47.27;-18829.81;5084766;28;20044;-76
2023/07/15 09:11:17;;;;;;;4.82;1.95;;;;;;;30.24;47.43;-18835.88;5075455;28;20535;-77
2023/07/15 09:13:43;;;;;;;5.35;1.80;;;;;;;30.32;47.83;-18838.16;5078018;28;20035;-76
2023/07/15 09:16:09;;;;;;;4.10;2.08;;;;;;;30.53;48.17;-18843.53;5078506;28;20047;-77
2023/07/15 09:18:40;;;;;;;3.03;1.70;;;;;;;30.25;47.38;-18836.13;5074714;28;20045;-77
2023/07/15 09:21:13;;;;;;;4.50;1.45;;;;;;;30.17;45.20;-18833.97;5076466;28;20032;-77
2023/07/15 09:23:41;;;;;;;3.95;1.65;;;;;;;30.21;44.71;-18835.06;5077293;28;20128;-77
2023/07/15 09:26:07;;;;;;;8.25;1.70;;;;;;;30.22;44.13;-18835.47;5066545;28;20702;-77
2023/07/15 09:28:33;;;;;;;7.47;2.00;;;;;;;30.17;44.15;-18834.09;5076085;28;20496;-78
2023/07/15 09:30:59;;;;;;;5.88;2.00;;;;;;;29.90;44.27;-18826.97;5072002;28;20090;-75
2023/07/15 09:33:34;;;;;;;7.45;1.90;;;;;;;30.00;45.03;-18829.66;5069499;28;20118;-76
2023/07/15 09:36:02;;;;;;;3.97;1.70;;;;;;;29.95;46.04;-18828.19;5082354;28;20514;-76
2023/07/15 09:38:31;;;;;;;;;;;;;;;30.02;45.33;-18830.22;5062385;28;20039;-76
2023/07/15 09:40:58;;;;;;;6.60;1.67;;;;;;;29.75;45.14;-18823.06;5076122;28;20383;-76
2023/07/15 09:43:23;;;;;;;3.20;1.75;;;;;;;29.80;45.52;-18824.28;5079339;28;20036;-77
2023/07/15 09:45:49;;;;;;;6.53;2.05;;;;;;;29.78;46.71;-18823.88;5077708;28;20649;-77
2023/07/15 09:48:16;;;;;;;3.08;1.65;;;;;;;29.67;46.26;-18820.94;5082333;28;20040;-77
2023/07/15 09:50:42;;;;;;;3.00;1.60;;;;;;;29.56;45.19;-18817.97;5069940;28;20049;-77
2023/07/15 09:53:08;;;;;;;5.28;1.77;;;;;;;29.66;45.52;-18820.78;5082569;28;20085;-77
2023/07/15 09:55:36;;;;;;;6.68;1.95;;;;;;;29.83;45.14;-18825.22;5080527;28;20063;-77
2023/07/15 09:58:23;;;;;;;8.02;1.80;;;;;;;29.75;45.27;-18823.06;5076577;28;20077;-77
2023/07/15 10:01:11;;;;;;;3.92;1.73;;;;;;;29.56;46.37;-18817.97;5077391;28;20049;-77
2023/07/15 10:03:52;;;;;;;4.90;2.03;;;;;;;29.67;46.30;-18820.94;5067463;28;20040;-77
2023/07/15 10:06:18;;;;;;;5.72;1.70;;;;;;;29.53;45.86;-18817.16;5077024;28;20559;-77
2023/07/15 10:08:44;;;;;;;3.30;1.63;;;;;;;29.50;45.86;-18816.34;5075538;28;20076;-77
2023/07/15 10:11:11;;;;;;;5.32;1.65;;;;;;;29.42;45.96;-18814.44;5074664;28;20039;-77
2023/07/15 10:13:36;;;;;;;4.85;1.85;;;;;;;29.49;46.08;-18816.19;5077914;28;20039;-77
2023/07/15 10:16:02;;;;;;;5.78;1.60;;;;;;;29.44;45.92;-18814.84;5073434;28;20041;-77
2023/07/15 10:18:31;;;;;;;3.42;1.90;;;;;;;29.57;46.05;-18818.34;5080870;28;20032;-77
2023/07/15 10:21:00;;;;;;;4.55;1.67;;;;;;;29.55;47.64;-18817.81;5078474;28;20756;-77
2023/07/15 10:23:32;;;;;;;6.00;1.80;;;;;;;29.64;47.96;-18820.13;5073658;28;20130;-76
2023/07/15 10:26:05;;;;;;;3.75;1.67;;;;;;;30.02;49.01;-18830.06;5080031;28;20032;-77
2023/07/15 10:28:39;;;;;;;4.40;1.70;;;;;;;30.06;46.06;-18831.28;5066805;28;20131;-76
2023/07/15 10:31:14;;;;;;;3.22;1.65;;;;;;;30.36;46.93;-18839.09;5074552;28;20434;-76
2023/07/15 10:34:05;;;;;;;3.97;1.70;;;;;;;30.41;45.12;-18840.44;5059847;28;20036;-77
2023/07/15 10:36:45;;;;;;;4.60;2.00;;;;;;;30.40;46.54;-18840.16;5076134;28;20131;-76
2023/07/15 10:39:19;;;;;;;4.95;1.67;;;;;;;30.47;46.41;-18841.91;5079786;28;20440;-76
2023/07/15 10:41:54;;;;;;;2.53;1.55;;;;;;;30.44;46.09;-18841.09;5058360;28;20710;-76
2023/07/15 10:44:25;;;;;;;5.13;2.00;;;;;;;30.55;46.19;-18844.06;5069441;28;20151;-77
2023/07/15 10:46:55;;;;;;;4.38;1.48;;;;;;;30.84;44.65;-18851.72;5072780;28;20101;-76
2023/07/15 10:49:21;;;;;;;5.60;1.85;;;;;;;30.82;45.36;-18851.19;5077834;28;20040;-78
2023/07/15 10:51:47;;;;;;;3.42;1.60;;;;;;;30.94;45.60;-18854.44;5074605;28;20090;-76
2023/07/15 10:54:18;;;;;;;4.45;1.85;;;;;;;30.97;46.17;-18855.09;5080112;28;20503;-76
2023/07/15 10:56:43;;;;;;;3.25;1.60;;;;;;;30.85;46.39;-18851.88;5083105;28;20395;-78
2023/07/15 10:59:08;;;;;;;2.97;1.70;;;;;;;30.85;47.24;-18851.88;5057623;28;20041;-76
2023/07/15 11:01:34;;;;;;;6.38;1.77;;;;;;;30.86;46.86;-18852.28;5070492;28;20040;-77
2023/07/15 11:04:08;;;;;;;3.90;1.77;;;;;;;30.74;47.74;-18849.19;5072537;28;20119;-77
2023/07/15 11:06:35;;;;;;;4.18;1.80;;;;;;;30.80;48.19;-18850.78;5030614;28;20051;-77
2023/07/15 11:09:16;;;;;;;4.35;1.50;;;;;;;30.89;50.86;-18853.09;5073773;28;20047;-78
2023/07/15 11:11:54;;;;;;;3.00;1.50;;;;;;;30.93;50.57;-18854.03;5073410;28;20032;-77
2023/07/15 11:14:23;;;;;;;4.80;1.77;;;;;;;30.94;52.35;-18854.28;5063360;28;20086;-76
2023/07/15 11:16:55;;;;;;;4.55;1.48;;;;;;;30.56;53.76;-18844.34;5057093;28;20464;-77
2023/07/15 11:19:23;;;;;;;3.15;1.55;;;;;;;30.61;55.63;-18845.53;5064399;28;20763;-77
2023/07/15 11:21:52;;;;;;;4.20;1.92;;;;;;;30.22;58.47;-18835.47;5062402;28;20087;-77
2023/07/15 11:24:20;;;;;;;3.38;1.92;;;;;;;29.89;62.56;-18826.84;5071968;28;20075;-76